Time;durP1;ratioP1;P1;durP2;ratioP2;P2;SDS_P1;SDS_P2;PMS_P1;PMS_P2;Temp;Humidity;BMP_temperature;BMP_pressure;BME280_temperature;BME280_humidity;BME280_pressure;Samples;Min_cycle;Max_cycle;Signal;HPM_P1;HPM_P2
2021/08/27 00:00:09;;;;;;;3.05;2.75;;;20.00;99.90;;;;;;4996532;28;20053;-86
2021/08/27 00:02:34;;;;;;;3.28;2.97;;;20.10;99.90;;;;;;4996036;28;20030;-86
2021/08/27 00:05:00;;;;;;;3.45;2.70;;;20.10;99.90;;;;;;4995618;28;20488;-86
2021/08/27 00:07:25;;;;;;;3.05;2.78;;;19.80;99.90;;;;;;4996082;28;20100;-87
2021/08/27 00:09:51;;;;;;;3.58;2.92;;;19.80;99.90;;;;;;4993000;28;20022;-86
2021/08/27 00:12:18;;;;;;;3.35;2.90;;;19.90;99.90;;;;;;4995134;28;20026;-86
2021/08/27 00:14:43;;;;;;;2.90;2.70;;;19.70;99.90;;;;;;4996304;28;20026;-86
2021/08/27 00:17:09;;;;;;;3.50;3.13;;;19.50;99.90;;;;;;4996200;28;20035;-86
2021/08/27 00:19:35;;;;;;;3.00;2.70;;;19.50;99.90;;;;;;4995351;28;20495;-86
2021/08/27 00:22:01;;;;;;;2.78;2.55;;;19.30;99.90;;;;;;4993662;28;20034;-86
2021/08/27 00:24:26;;;;;;;2.85;2.60;;;19.20;99.90;;;;;;4976283;28;20357;-86
2021/08/27 00:26:52;;;;;;;3.72;2.88;;;19.10;99.90;;;;;;4996938;28;20023;-86
2021/08/27 00:29:18;;;;;;;2.90;2.70;;;19.10;99.90;;;;;;4995761;28;20053;-86
2021/08/27 00:31:43;;;;;;;4.05;2.95;;;19.20;99.90;;;;;;4995778;28;20058;-86
2021/08/27 00:34:09;;;;;;;3.80;3.40;;;19.30;99.90;;;;;;4994798;28;20030;-86
2021/08/27 00:36:34;;;;;;;3.53;2.83;;;19.20;99.90;;;;;;4992276;28;20131;-85
2021/08/27 00:39:00;;;;;;;3.10;2.80;;;19.10;99.90;;;;;;4996153;28;20030;-86
2021/08/27 00:41:26;;;;;;;3.72;3.20;;;19.10;99.90;;;;;;4999447;28;20049;-85
2021/08/27 00:43:51;;;;;;;3.97;3.08;;;18.90;99.90;;;;;;4999331;28;20070;-85
2021/08/27 00:46:17;;;;;;;3.22;2.92;;;18.90;99.90;;;;;;4999658;28;20029;-86
2021/08/27 00:48:43;;;;;;;3.30;3.00;;;19.00;99.90;;;;;;4995401;28;20105;-86
2021/08/27 00:51:08;;;;;;;3.83;3.20;;;18.90;99.90;;;;;;4999947;28;20419;-86
2021/08/27 00:53:34;;;;;;;3.00;2.70;;;18.90;99.90;;;;;;4999293;28;20022;-87
2021/08/27 00:56:02;;;;;;;3.38;3.08;;;18.90;99.90;;;;;;4999116;28;20503;-86
2021/08/27 00:58:28;;;;;;;3.05;2.85;;;18.80;99.90;;;;;;4999102;28;20029;-86
2021/08/27 01:00:54;;;;;;;3.78;3.13;;;18.80;99.90;;;;;;4996678;28;20041;-87
2021/08/27 01:03:20;;;;;;;3.38;3.05;;;18.70;99.90;;;;;;4998200;28;20437;-86
2021/08/27 01:05:51;;;;;;;3.95;2.92;;;18.70;99.90;;;;;;4998383;28;20085;-85
2021/08/27 01:08:28;;;;;;;3.47;3.17;;;18.80;99.90;;;;;;4999177;28;20050;-86
2021/08/27 01:11:06;;;;;;;3.38;3.08;;;18.80;99.90;;;;;;4998969;28;20036;-86
2021/08/27 01:13:42;;;;;;;3.38;3.05;;;18.70;99.90;;;;;;4999091;28;20022;-86
2021/08/27 01:16:14;;;;;;;3.30;3.00;;;18.60;99.90;;;;;;4998265;28;20038;-86
2021/08/27 01:18:53;;;;;;;3.45;2.97;;;18.70;99.90;;;;;;4994515;28;20019;-86
2021/08/27 01:21:40;;;;;;;3.38;2.85;;;18.80;99.90;;;;;;5007728;28;20103;-86
2021/08/27 01:24:09;;;;;;;3.63;3.30;;;18.60;99.90;;;;;;4999511;28;20046;-86
2021/08/27 01:26:45;;;;;;;5.45;3.20;;;18.70;99.90;;;;;;4998731;28;20019;-86
2021/08/27 01:29:14;;;;;;;3.67;3.38;;;18.50;99.90;;;;;;4998742;28;20077;-86
2021/08/27 01:31:40;;;;;;;4.22;3.03;;;18.50;99.90;;;;;;4998309;28;20085;-86
2021/08/27 01:34:24;;;;;;;4.32;3.22;;;18.50;99.90;;;;;;4997146;28;20604;-86
2021/08/27 01:36:52;;;;;;;3.30;3.00;;;18.50;99.90;;;;;;4980216;28;20046;-85
2021/08/27 01:39:20;;;;;;;4.63;3.20;;;18.40;99.90;;;;;;4998246;28;20077;-86
2021/08/27 01:41:56;;;;;;;4.38;3.50;;;18.40;99.90;;;;;;4998296;28;20523;-86
2021/08/27 01:44:24;;;;;;;4.47;3.58;;;18.30;99.90;;;;;;4998575;28;20029;-85
2021/08/27 01:46:52;;;;;;;5.28;3.15;;;18.20;99.90;;;;;;4998374;28;20026;-86
2021/08/27 01:49:19;;;;;;;5.13;3.45;;;18.20;99.90;;;;;;4998347;28;20033;-86
2021/08/27 01:51:47;;;;;;;4.53;3.50;;;18.20;99.90;;;;;;4993897;28;20034;-86
2021/08/27 01:54:17;;;;;;;4.68;3.47;;;18.20;99.90;;;;;;5006578;28;20029;-86
2021/08/27 01:56:43;;;;;;;5.60;4.07;;;18.20;99.90;;;;;;4998447;28;20118;-86
2021/08/27 01:59:10;;;;;;;4.95;3.55;;;18.10;99.90;;;;;;4998804;28;20077;-86
2021/08/27 02:01:37;;;;;;;4.72;3.80;;;18.00;99.90;;;;;;4998004;28;20040;-86
2021/08/27 02:04:08;;;;;;;4.55;3.42;;;18.00;99.90;;;;;;4996168;28;20069;-85
2021/08/27 02:06:35;;;;;;;3.97;3.63;;;18.00;99.90;;;;;;4994981;28;20030;-86
2021/08/27 02:09:02;;;;;;;4.05;3.65;;;18.00;99.90;;;;;;4999077;28;20022;-86
2021/08/27 02:11:30;;;;;;;4.22;3.67;;;18.00;99.90;;;;;;4997843;28;20145;-86
2021/08/27 02:13:58;;;;;;;6.30;3.78;;;18.00;99.90;;;;;;4998004;28;20049;-86
2021/08/27 02:16:24;;;;;;;4.75;3.60;;;17.90;99.90;;;;;;4997789;28;20041;-86
2021/08/27 02:18:50;;;;;;;5.03;3.47;;;17.80;99.90;;;;;;4994315;28;20018;-86
2021/08/27 02:21:18;;;;;;;4.80;3.40;;;17.80;99.90;;;;;;4997206;28;20513;-85
2021/08/27 02:23:46;;;;;;;4.88;3.78;;;17.80;99.90;;;;;;4998169;28;20019;-86
2021/08/27 02:26:15;;;;;;;4.85;3.63;;;17.60;99.90;;;;;;4997710;28;20507;-86
2021/08/27 02:28:43;;;;;;;5.97;3.42;;;17.50;99.90;;;;;;4997612;28;20096;-85
2021/08/27 02:31:10;;;;;;;5.68;4.35;;;17.60;99.90;;;;;;4996515;28;20081;-85
2021/08/27 02:33:39;;;;;;;5.05;3.80;;;17.60;99.90;;;;;;4994071;28;20466;-86
2021/08/27 02:36:07;;;;;;;5.10;4.00;;;17.60;99.90;;;;;;4997799;28;20393;-86
2021/08/27 02:38:35;;;;;;;6.40;4.20;;;17.70;99.90;;;;;;4997253;28;20030;-86
2021/08/27 02:41:00;;;;;;;6.05;4.18;;;17.70;99.90;;;;;;4997881;28;20041;-85
2021/08/27 02:43:26;;;;;;;6.97;4.45;;;17.60;99.90;;;;;;4997377;28;20091;-86
2021/08/27 02:45:52;;;;;;;6.40;4.05;;;17.50;99.90;;;;;;4993913;28;20463;-85
2021/08/27 02:48:17;;;;;;;6.38;4.25;;;17.40;99.90;;;;;;4996187;28;20399;-86
2021/08/27 02:50:47;;;;;;;5.72;4.50;;;17.50;99.90;;;;;;4997926;28;20037;-85
2021/08/27 02:53:27;;;;;;;5.13;4.10;;;17.50;99.90;;;;;;4997530;28;20029;-85
2021/08/27 02:56:10;;;;;;;6.45;4.30;;;17.30;99.90;;;;;;4996960;28;20100;-85
2021/08/27 02:58:36;;;;;;;4.75;4.20;;;17.40;99.90;;;;;;4997040;28;20061;-86
2021/08/27 03:01:09;;;;;;;4.63;4.00;;;17.40;99.90;;;;;;4995135;28;20069;-85
2021/08/27 03:03:38;;;;;;;5.07;3.97;;;17.30;99.90;;;;;;4993040;28;20542;-86
2021/08/27 03:06:18;;;;;;;5.78;4.22;;;17.30;99.90;;;;;;4997731;28;20038;-85
2021/08/27 03:08:48;;;;;;;5.82;4.07;;;17.40;99.90;;;;;;4996979;28;20083;-86
2021/08/27 03:11:24;;;;;;;9.10;5.57;;;17.40;99.90;;;;;;4996990;28;20062;-86
2021/08/27 03:14:03;;;;;;;4.72;4.22;;;17.30;99.90;;;;;;4996912;28;20025;-85
2021/08/27 03:16:29;;;;;;;4.72;4.28;;;17.30;99.90;;;;;;4997070;28;20398;-86
2021/08/27 03:19:07;;;;;;;6.53;4.20;;;17.30;99.90;;;;;;4993990;28;20475;-85
2021/08/27 03:21:38;;;;;;;4.93;3.88;;;17.30;99.90;;;;;;4976387;28;20034;-86
2021/08/27 03:24:30;;;;;;;6.93;4.15;;;17.20;99.90;;;;;;4997640;28;20026;-86
2021/08/27 03:27:00;;;;;;;5.95;4.45;;;17.00;99.90;;;;;;4995647;28;20030;-85
2021/08/27 03:29:30;;;;;;;6.63;4.03;;;16.90;99.90;;;;;;4996119;28;20055;-85
2021/08/27 03:31:57;;;;;;;9.32;4.65;;;16.90;99.90;;;;;;4996376;28;20518;-85
2021/08/27 03:34:24;;;;;;;5.85;4.63;;;17.00;99.90;;;;;;4996648;28;20120;-85
2021/08/27 03:36:50;;;;;;;8.75;5.00;;;17.00;99.90;;;;;;4992641;28;20044;-86
2021/08/27 03:39:17;;;;;;;5.13;4.30;;;17.00;99.90;;;;;;4996805;28;20030;-85
2021/08/27 03:41:43;;;;;;;8.52;4.88;;;16.90;99.90;;;;;;4996047;28;20026;-86
2021/08/27 03:44:10;;;;;;;7.32;4.55;;;16.80;99.90;;;;;;4996409;28;20085;-86
2021/08/27 03:46:37;;;;;;;6.75;4.55;;;16.70;99.90;;;;;;4996019;28;20034;-85
2021/08/27 03:49:03;;;;;;;6.65;4.85;;;16.80;99.90;;;;;;4994841;28;20495;-85
2021/08/27 03:51:30;;;;;;;7.65;4.75;;;16.80;99.90;;;;;;4993702;28;20499;-85
2021/08/27 03:53:56;;;;;;;8.45;5.10;;;16.90;99.90;;;;;;4996696;28;20057;-85
2021/08/27 03:56:25;;;;;;;7.38;5.20;;;16.70;99.90;;;;;;4995857;28;20034;-86
2021/08/27 03:58:52;;;;;;;6.90;4.90;;;16.70;99.90;;;;;;4996301;28;20022;-86
2021/08/27 04:01:21;;;;;;;6.72;5.07;;;16.60;99.90;;;;;;4978812;28;20446;-86
2021/08/27 04:03:47;;;;;;;8.98;5.13;;;16.50;99.90;;;;;;4992131;28;20026;-85
2021/08/27 04:06:13;;;;;;;7.90;4.85;;;16.50;99.90;;;;;;4996242;28;20488;-86
2021/08/27 04:08:41;;;;;;;6.00;4.50;;;16.60;99.90;;;;;;4996199;28;20025;-85
2021/08/27 04:11:09;;;;;;;8.63;4.80;;;16.30;99.90;;;;;;4995502;28;20030;-85
2021/08/27 04:13:35;;;;;;;10.50;5.00;;;16.30;99.90;;;;;;4995575;28;20030;-86
2021/08/27 04:16:01;;;;;;;9.73;5.30;;;16.20;99.90;;;;;;4993707;28;20042;-85
2021/08/27 04:18:26;;;;;;;11.45;5.22;;;15.90;99.90;;;;;;4994514;28;20077;-85
2021/08/27 04:20:52;;;;;;;16.42;4.75;;;15.80;99.90;;;;;;4996312;28;20073;-86
2021/08/27 04:23:18;;;;;;;8.68;4.75;;;15.80;99.90;;;;;;4995642;28;20062;-84
2021/08/27 04:25:43;;;;;;;7.90;4.97;;;15.70;99.90;;;;;;4995537;28;20488;-86
2021/08/27 04:28:09;;;;;;;6.22;4.85;;;15.70;99.90;;;;;;4994624;28;20026;-86
2021/08/27 04:30:35;;;;;;;7.90;4.40;;;15.80;99.90;;;;;;4992723;28;20046;-85
2021/08/27 04:33:02;;;;;;;8.93;4.90;;;15.60;99.90;;;;;;4996711;28;20041;-85
2021/08/27 04:35:28;;;;;;;8.73;5.20;;;15.60;99.90;;;;;;4995389;28;20104;-86
2021/08/27 04:37:54;;;;;;;6.88;5.03;;;15.60;99.90;;;;;;4995439;28;20428;-85
2021/08/27 04:40:20;;;;;;;11.82;5.22;;;15.40;99.90;;;;;;4995451;28;20038;-86
2021/08/27 04:42:46;;;;;;;9.02;5.63;;;15.50;99.90;;;;;;4991530;28;20511;-85
2021/08/27 04:45:12;;;;;;;7.78;4.95;;;15.40;99.90;;;;;;4996067;28;20117;-86
2021/08/27 04:47:38;;;;;;;6.82;4.88;;;15.40;99.90;;;;;;4995844;28;20035;-85
2021/08/27 04:50:06;;;;;;;10.07;5.15;;;15.30;99.90;;;;;;4995534;28;20030;-86
2021/08/27 04:52:32;;;;;;;10.27;5.40;;;15.30;99.90;;;;;;4995997;28;20041;-86
2021/08/27 04:54:57;;;;;;;9.27;5.50;;;15.30;99.90;;;;;;4992949;28;20030;-86
2021/08/27 04:57:23;;;;;;;8.32;5.20;;;15.50;99.90;;;;;;4993627;28;20046;-86
2021/08/27 04:59:50;;;;;;;8.15;5.32;;;15.40;99.90;;;;;;4996238;28;20030;-86
2021/08/27 05:02:16;;;;;;;7.05;4.75;;;15.30;99.90;;;;;;4995363;28;20442;-84
2021/08/27 05:04:42;;;;;;;10.07;5.38;;;15.20;99.90;;;;;;4995477;28;20034;-85
2021/08/27 05:07:08;;;;;;;7.15;5.45;;;15.10;99.90;;;;;;4994570;28;20031;-86
2021/08/27 05:09:34;;;;;;;7.13;5.32;;;15.10;99.90;;;;;;4991980;28;20510;-86
2021/08/27 05:11:59;;;;;;;9.90;5.15;;;15.20;99.90;;;;;;4996120;28;20038;-86
2021/08/27 05:14:25;;;;;;;8.43;5.40;;;15.10;99.90;;;;;;4995383;28;20479;-86
2021/08/27 05:16:50;;;;;;;10.20;5.72;;;15.00;99.90;;;;;;4995812;28;20049;-85
2021/08/27 05:19:16;;;;;;;8.43;4.90;;;15.10;99.90;;;;;;4995338;28;20026;-86
2021/08/27 05:21:42;;;;;;;9.00;5.05;;;15.00;99.90;;;;;;4991121;28;20061;-85
2021/08/27 05:24:08;;;;;;;7.28;5.40;;;15.10;99.90;;;;;;4995935;28;20030;-85
2021/08/27 05:26:34;;;;;;;9.43;5.20;;;15.10;99.90;;;;;;4997148;28;20042;-85
2021/08/27 05:29:00;;;;;;;6.45;5.20;;;15.00;99.90;;;;;;4998334;28;20026;-86
2021/08/27 05:31:26;;;;;;;11.43;5.22;;;15.00;99.90;;;;;;4997213;28;20518;-86
2021/08/27 05:33:52;;;;;;;9.75;4.90;;;15.00;99.90;;;;;;4995200;28;20498;-85
2021/08/27 05:36:18;;;;;;;10.20;5.50;;;14.90;99.90;;;;;;4997082;28;20137;-89
2021/08/27 05:38:44;;;;;;;9.50;5.18;;;15.10;99.90;;;;;;4981264;28;20117;-88
2021/08/27 05:41:09;;;;;;;8.15;4.70;;;15.10;99.90;;;;;;4998266;28;20399;-90
2021/08/27 05:43:35;;;;;;;7.05;5.05;;;15.00;99.90;;;;;;4998424;28;20030;-89
2021/08/27 05:46:02;;;;;;;8.82;5.10;;;15.30;99.90;;;;;;4996005;28;20566;-89
2021/08/27 05:48:27;;;;;;;8.82;5.50;;;15.30;99.90;;;;;;4996591;28;20100;-89
2021/08/27 05:50:54;;;;;;;8.57;4.68;;;15.10;99.90;;;;;;4998827;28;20030;-90
2021/08/27 05:53:20;;;;;;;8.35;5.20;;;15.10;99.90;;;;;;4998270;28;20030;-91
2021/08/27 05:55:46;;;;;;;9.15;5.10;;;14.90;99.90;;;;;;4997999;28;20103;-87
2021/08/27 05:58:11;;;;;;;8.20;5.13;;;14.90;99.90;;;;;;4997846;28;20030;-93
2021/08/27 06:00:37;;;;;;;8.80;4.75;;;14.90;99.90;;;;;;4994345;28;20034;-90
2021/08/27 06:03:03;;;;;;;10.60;5.18;;;15.00;99.90;;;;;;4999252;28;20025;-90
2021/08/27 06:05:29;;;;;;;6.50;4.63;;;15.10;99.90;;;;;;4980852;28;20057;-92
2021/08/27 06:07:55;;;;;;;9.65;5.20;;;15.10;99.90;;;;;;4997610;28;20104;-90
2021/08/27 06:10:20;;;;;;;7.53;4.78;;;15.20;99.90;;;;;;4998456;28;20470;-90
2021/08/27 06:12:46;;;;;;;9.20;4.97;;;15.20;99.90;;;;;;4993811;28;20039;-90
2021/08/27 06:15:14;;;;;;;11.10;5.30;;;15.40;99.90;;;;;;4998268;28;20030;-90
2021/08/27 06:17:40;;;;;;;7.45;4.82;;;15.30;99.90;;;;;;4998124;28;20110;-91
2021/08/27 06:20:07;;;;;;;10.68;5.32;;;15.40;99.90;;;;;;4997793;28;20030;-88
2021/08/27 06:22:33;;;;;;;9.07;5.60;;;15.30;99.90;;;;;;4997265;28;20376;-90
2021/08/27 06:25:01;;;;;;;7.60;5.40;;;15.30;99.90;;;;;;4994184;28;20019;-96
2021/08/27 06:27:27;;;;;;;11.73;5.18;;;15.30;99.90;;;;;;5009500;28;20121;-90
2021/08/27 06:29:52;;;;;;;11.80;5.57;;;15.50;99.90;;;;;;4998304;28;20492;-91
2021/08/27 06:32:19;;;;;;;9.93;5.07;;;15.50;99.90;;;;;;4998122;28;20019;-92
2021/08/27 06:34:45;;;;;;;11.30;5.50;;;15.40;99.90;;;;;;4997628;28;20531;-90
2021/08/27 06:37:11;;;;;;;10.18;5.63;;;15.50;99.90;;;;;;4995772;28;20376;-90
2021/08/27 06:39:37;;;;;;;10.73;5.03;;;15.40;99.90;;;;;;4994649;28;20068;-96
2021/08/27 06:42:03;;;;;;;8.88;4.80;;;15.30;99.90;;;;;;4998202;28;20038;-88
2021/08/27 06:44:29;;;;;;;9.93;4.90;;;15.50;99.90;;;;;;4997311;28;20113;-85
2021/08/27 06:46:55;;;;;;;8.52;5.10;;;15.30;99.90;;;;;;4997168;28;20126;-85
2021/08/27 06:49:20;;;;;;;10.48;5.28;;;15.30;99.90;;;;;;4997225;28;20041;-85
2021/08/27 06:51:47;;;;;;;10.02;5.20;;;15.30;99.90;;;;;;4992753;28;20030;-85
2021/08/27 06:54:13;;;;;;;12.57;6.22;;;15.50;99.90;;;;;;4997392;28;20391;-85
2021/08/27 06:56:38;;;;;;;8.90;5.18;;;15.50;99.90;;;;;;4996876;28;20038;-86
2021/08/27 06:59:04;;;;;;;7.18;5.10;;;15.60;99.90;;;;;;4997508;28;20030;-85
2021/08/27 07:01:30;;;;;;;9.77;5.60;;;15.50;99.90;;;;;;4996798;28;20033;-85
2021/08/27 07:03:56;;;;;;;12.68;5.55;;;15.60;99.90;;;;;;4994239;28;20074;-85
2021/08/27 07:06:21;;;;;;;11.77;5.53;;;15.70;99.90;;;;;;4995970;28;20092;-85
2021/08/27 07:08:48;;;;;;;9.38;5.35;;;15.60;99.90;;;;;;4995844;28;20145;-85
2021/08/27 07:11:15;;;;;;;9.90;5.45;;;15.90;99.90;;;;;;4996799;28;20022;-85
2021/08/27 07:13:42;;;;;;;9.88;5.55;;;15.90;99.90;;;;;;4996941;28;20561;-85
2021/08/27 07:16:08;;;;;;;8.30;5.22;;;15.90;99.90;;;;;;4996005;28;20506;-85
2021/08/27 07:18:33;;;;;;;8.65;5.13;;;15.70;99.90;;;;;;4993635;28;20054;-85
2021/08/27 07:20:59;;;;;;;9.95;5.28;;;15.80;99.90;;;;;;4996979;28;20061;-85
2021/08/27 07:23:25;;;;;;;7.72;5.40;;;15.90;99.90;;;;;;4996735;28;20065;-86
2021/08/27 07:25:51;;;;;;;8.80;5.55;;;16.00;99.90;;;;;;4996548;28;20032;-85
2021/08/27 07:28:17;;;;;;;9.20;5.30;;;15.80;99.90;;;;;;4996762;28;20115;-85
2021/08/27 07:30:44;;;;;;;10.55;5.13;;;15.70;99.90;;;;;;4976730;28;20055;-85
2021/08/27 07:33:10;;;;;;;10.02;5.07;;;15.90;99.90;;;;;;4996741;28;20483;-85
2021/08/27 07:35:35;;;;;;;10.85;5.43;;;16.10;99.90;;;;;;4995481;28;20065;-85
2021/08/27 07:38:01;;;;;;;8.05;5.47;;;16.00;99.90;;;;;;4996117;28;20026;-86
2021/08/27 07:40:27;;;;;;;10.43;5.30;;;16.00;99.90;;;;;;4995860;28;20026;-85
2021/08/27 07:42:54;;;;;;;8.02;4.90;;;16.00;99.90;;;;;;4993454;28;20101;-85
2021/08/27 07:45:20;;;;;;;8.40;5.15;;;16.10;99.90;;;;;;4995263;28;20030;-84
2021/08/27 07:47:46;;;;;;;9.15;5.90;;;16.40;99.90;;;;;;4996478;28;20026;-85
2021/08/27 07:50:14;;;;;;;10.85;5.65;;;16.30;99.90;;;;;;4995450;28;20076;-85
2021/08/27 07:52:40;;;;;;;9.88;5.43;;;16.20;99.90;;;;;;4996115;28;20046;-85
2021/08/27 07:55:07;;;;;;;8.55;5.15;;;16.30;99.90;;;;;;4994836;28;20030;-85
2021/08/27 07:57:38;;;;;;;7.60;4.97;;;16.40;99.90;;;;;;4992922;28;20042;-86
2021/08/27 08:00:05;;;;;;;8.50;5.18;;;16.70;99.90;;;;;;4996476;28;20030;-86
2021/08/27 08:02:30;;;;;;;8.15;4.97;;;16.80;99.90;;;;;;4996316;28;20058;-85
2021/08/27 08:04:56;;;;;;;8.35;5.20;;;17.10;99.90;;;;;;4996041;28;20069;-85
2021/08/27 08:07:22;;;;;;;8.50;5.35;;;17.20;99.90;;;;;;4995711;28;20026;-85
2021/08/27 08:09:47;;;;;;;9.07;5.43;;;17.40;99.90;;;;;;4991995;28;20026;-85
2021/08/27 08:12:13;;;;;;;8.35;4.80;;;17.40;99.90;;;;;;4996072;28;20169;-85
2021/08/27 08:14:38;;;;;;;9.65;5.15;;;17.50;99.90;;;;;;4996506;28;20069;-85
2021/08/27 08:17:04;;;;;;;7.25;4.68;;;17.60;99.90;;;;;;4995871;28;20388;-85
2021/08/27 08:19:30;;;;;;;9.75;5.32;;;17.70;99.90;;;;;;4996243;28;20510;-85
2021/08/27 08:21:55;;;;;;;9.48;4.82;;;17.80;99.90;;;;;;4992877;28;20054;-85
2021/08/27 08:24:21;;;;;;;7.35;4.57;;;17.90;99.90;;;;;;4994317;28;20025;-85
2021/08/27 08:26:47;;;;;;;6.63;4.68;;;18.00;99.90;;;;;;4996163;28;20034;-85
2021/08/27 08:29:12;;;;;;;6.10;4.68;;;18.10;99.90;;;;;;4996205;28;20407;-85
2021/08/27 08:31:38;;;;;;;6.68;4.30;;;18.40;99.90;;;;;;4995591;28;20026;-85
2021/08/27 08:34:04;;;;;;;8.35;4.65;;;18.70;99.90;;;;;;4993935;28;20027;-85
2021/08/27 08:36:30;;;;;;;7.07;4.68;;;18.80;99.90;;;;;;4992840;28;20054;-85
2021/08/27 08:38:56;;;;;;;8.85;4.80;;;19.00;99.90;;;;;;4996088;28;20480;-85
2021/08/27 08:41:22;;;;;;;7.28;4.85;;;18.60;99.90;;;;;;4995611;28;20023;-85
2021/08/27 08:43:49;;;;;;;8.38;4.82;;;18.60;99.90;;;;;;4995513;28;20031;-85
2021/08/27 08:46:16;;;;;;;8.45;4.55;;;19.00;99.90;;;;;;4995308;28;20014;-85
2021/08/27 08:48:46;;;;;;;8.45;4.10;;;19.00;99.90;;;;;;4991380;28;20482;-85
2021/08/27 08:51:12;;;;;;;9.98;4.93;;;19.00;99.90;;;;;;5003224;28;20521;-85
2021/08/27 08:53:40;;;;;;;8.80;4.78;;;19.00;99.90;;;;;;4995693;28;20368;-85
2021/08/27 08:56:09;;;;;;;5.47;4.40;;;19.00;99.90;;;;;;4995431;28;20078;-84
2021/08/27 08:58:35;;;;;;;8.57;4.70;;;19.30;99.90;;;;;;4995338;28;20117;-85
2021/08/27 09:01:01;;;;;;;7.38;4.30;;;19.50;99.90;;;;;;4994910;28;20106;-85
2021/08/27 09:03:27;;;;;;;7.60;4.78;;;19.40;99.90;;;;;;4996973;28;20038;-86
2021/08/27 09:05:52;;;;;;;6.82;4.20;;;19.40;99.90;;;;;;4999830;28;20041;-85
2021/08/27 09:08:39;;;;;;;7.20;4.47;;;19.60;99.90;;;;;;4998974;28;20387;-85
2021/08/27 09:11:21;;;;;;;7.72;4.40;;;20.10;99.90;;;;;;4999637;28;20026;-86
2021/08/27 09:13:50;;;;;;;7.63;3.75;;;19.90;99.90;;;;;;4999366;28;20084;-85
2021/08/27 09:16:16;;;;;;;7.35;3.95;;;20.00;99.90;;;;;;4998362;28;20036;-85
2021/08/27 09:18:48;;;;;;;8.52;4.22;;;20.50;99.90;;;;;;4979147;28;20053;-85
2021/08/27 09:21:45;;;;;;;6.35;4.00;;;20.30;99.90;;;;;;4998763;28;20026;-86
2021/08/27 09:24:25;;;;;;;7.05;4.00;;;20.40;99.90;;;;;;5006359;28;20161;-85
2021/08/27 09:26:56;;;;;;;8.68;4.28;;;20.80;99.90;;;;;;4998759;28;20092;-85
2021/08/27 09:29:50;;;;;;;5.30;3.67;;;20.70;99.90;;;;;;4998697;28;20109;-85
2021/08/27 09:32:24;;;;;;;6.57;4.45;;;21.10;99.90;;;;;;4998645;28;20551;-85
2021/08/27 09:35:18;;;;;;;6.88;3.90;;;21.10;99.90;;;;;;4998551;28;20018;-85
2021/08/27 09:37:47;;;;;;;5.50;4.15;;;21.40;99.90;;;;;;4998518;28;20042;-85
2021/08/27 09:40:17;;;;;;;6.60;3.85;;;21.20;99.90;;;;;;4998378;28;20022;-85
2021/08/27 09:42:52;;;;;;;5.80;4.05;;;21.00;99.90;;;;;;4978822;28;20022;-85
2021/08/27 09:45:40;;;;;;;7.85;3.95;;;21.20;99.90;;;;;;5007320;28;20501;-86
2021/08/27 09:48:11;;;;;;;6.03;3.65;;;21.90;99.90;;;;;;4998677;28;20495;-85
2021/08/27 09:50:41;;;;;;;7.28;4.20;;;22.30;99.90;;;;;;4998264;28;20022;-86
2021/08/27 09:53:09;;;;;;;6.65;3.95;;;22.00;99.90;;;;;;4998445;28;20034;-85
2021/08/27 09:55:37;;;;;;;6.13;3.90;;;21.70;99.90;;;;;;4998070;28;20022;-85
2021/08/27 09:58:10;;;;;;;8.20;3.88;;;22.20;99.90;;;;;;4996703;28;20034;-85
2021/08/27 10:00:38;;;;;;;8.85;4.05;;;22.70;99.90;;;;;;4994249;28;20030;-84
2021/08/27 10:03:25;;;;;;;5.90;3.63;;;23.00;99.90;;;;;;4981054;28;20058;-85
2021/08/27 10:05:54;;;;;;;6.25;3.40;;;23.10;99.90;;;;;;4998536;28;20041;-85
2021/08/27 10:08:24;;;;;;;7.22;3.70;;;23.10;99.90;;;;;;4997816;28;20023;-84
2021/08/27 10:10:56;;;;;;;7.75;4.10;;;23.00;99.90;;;;;;4998171;28;20030;-85
2021/08/27 10:13:23;;;;;;;6.07;3.88;;;22.60;99.90;;;;;;4996941;28;20049;-85
2021/08/27 10:15:50;;;;;;;6.57;3.60;;;23.20;99.90;;;;;;4994524;28;20034;-85
2021/08/27 10:18:15;;;;;;;6.90;3.75;;;23.40;99.90;;;;;;4997707;28;20081;-85
2021/08/27 10:20:44;;;;;;;5.72;3.72;;;24.50;99.90;;;;;;4998033;28;20042;-85
2021/08/27 10:23:14;;;;;;;8.50;3.53;;;27.30;99.90;;;;;;4997962;28;20022;-85
2021/08/27 10:25:40;;;;;;;8.68;3.45;;;28.60;99.90;;;;;;4997678;28;20022;-85
2021/08/27 10:28:06;;;;;;;5.75;3.30;;;31.20;99.90;;;;;;4996185;28;20037;-85
2021/08/27 10:30:52;;;;;;;8.02;3.63;;;33.10;99.90;;;;;;4994746;28;20030;-85
2021/08/27 10:33:38;;;;;;;8.50;3.25;;;30.40;99.90;;;;;;5005898;28;20037;-84
2021/08/27 10:36:10;;;;;;;6.57;3.50;;;27.20;99.90;;;;;;4997767;28;20046;-85
2021/08/27 10:38:43;;;;;;;17.60;4.47;;;29.80;99.90;;;;;;4997656;28;20022;-85
2021/08/27 10:41:11;;;;;;;4.93;3.20;;;33.80;99.90;;;;;;4997832;28;20054;-85
2021/08/27 10:43:50;;;;;;;4.05;3.10;;;30.00;99.90;;;;;;4997389;28;20033;-85
2021/08/27 10:46:15;;;;;;;6.53;3.60;;;26.60;99.90;;;;;;4979434;28;20029;-85
2021/08/27 10:48:52;;;;;;;6.28;3.53;;;24.90;99.90;;;;;;4993323;28;20108;-85
2021/08/27 10:51:37;;;;;;;4.45;3.25;;;28.20;99.90;;;;;;5005713;28;20521;-85
2021/08/27 10:54:04;;;;;;;7.15;3.35;;;28.70;99.90;;;;;;4997803;28;20037;-84
2021/08/27 10:56:47;;;;;;;4.78;3.08;;;26.10;99.90;;;;;;4997246;28;20399;-84
2021/08/27 10:59:14;;;;;;;7.38;3.22;;;29.60;99.90;;;;;;4997305;28;20376;-84
2021/08/27 11:01:42;;;;;;;6.50;3.55;;;34.50;99.90;;;;;;4996881;28;20065;-85
2021/08/27 11:04:20;;;;;;;6.47;3.28;;;35.70;99.90;;;;;;4996243;28;20030;-85
2021/08/27 11:07:25;;;;;;;4.32;2.97;;;33.10;99.90;;;;;;4977807;28;20113;-85
2021/08/27 11:10:13;;;;;;;5.88;3.20;;;36.30;99.90;;;;;;4979262;28;20030;-85
2021/08/27 11:12:40;;;;;;;4.72;3.17;;;37.40;99.90;;;;;;4992642;28;20487;-84
2021/08/27 11:15:26;;;;;;;5.88;3.10;;;35.00;99.90;;;;;;4997225;28;20037;-85
2021/08/27 11:18:17;;;;;;;5.15;3.03;;;29.30;99.90;;;;;;4996830;28;20121;-85
2021/08/27 11:20:43;;;;;;;5.22;3.28;;;31.40;99.90;;;;;;4996488;28;20089;-84
2021/08/27 11:23:13;;;;;;;4.95;3.03;;;31.80;99.90;;;;;;4996542;28;20034;-85
2021/08/27 11:25:56;;;;;;;3.83;2.80;;;31.00;99.90;;;;;;4996651;28;20038;-85
2021/08/27 11:28:24;;;;;;;4.88;3.30;;;34.20;99.90;;;;;;4996550;28;20026;-85
2021/08/27 11:30:59;;;;;;;3.40;3.08;;;29.40;99.90;;;;;;4993396;28;20042;-85
2021/08/27 11:33:47;;;;;;;4.82;3.30;;;28.30;99.90;;;;;;4994913;28;20026;-85
2021/08/27 11:36:17;;;;;;;5.97;3.25;;;28.10;99.90;;;;;;5004214;28;20041;-85
2021/08/27 11:38:43;;;;;;;3.60;2.85;;;33.40;99.90;;;;;;4996386;28;20039;-85
2021/08/27 11:41:11;;;;;;;6.00;3.10;;;32.00;99.90;;;;;;4996001;28;20022;-85
2021/08/27 11:43:50;;;;;;;7.03;3.25;;;34.40;99.90;;;;;;4997038;28;20025;-85
2021/08/27 11:46:25;;;;;;;4.40;2.70;;;33.00;99.90;;;;;;4996181;28;20026;-86
2021/08/27 11:49:24;;;;;;;5.78;3.10;;;33.70;99.90;;;;;;4978277;28;20022;-85
2021/08/27 11:52:13;;;;;;;4.35;2.88;;;30.00;99.90;;;;;;4977545;28;20019;-85
2021/08/27 11:54:39;;;;;;;5.20;2.97;;;27.80;99.90;;;;;;4992397;28;20034;-85
2021/08/27 11:57:16;;;;;;;3.72;2.88;;;30.00;99.90;;;;;;4996619;28;20085;-85
2021/08/27 11:59:43;;;;;;;5.00;2.90;;;28.90;99.90;;;;;;4996422;28;20084;-85
2021/08/27 12:02:20;;;;;;;4.53;2.83;;;31.50;99.90;;;;;;4995898;28;20531;-85
2021/08/27 12:04:54;;;;;;;5.60;3.10;;;32.20;99.90;;;;;;4996652;28;20243;-85
2021/08/27 12:07:20;;;;;;;5.13;3.28;;;30.50;99.90;;;;;;4996072;28;20037;-84
2021/08/27 12:10:01;;;;;;;4.28;2.90;;;28.50;99.90;;;;;;4991481;28;20459;-85
2021/08/27 12:12:34;;;;;;;5.88;3.28;;;31.30;99.90;;;;;;5003922;28;20566;-85
2021/08/27 12:15:00;;;;;;;4.53;2.80;;;30.40;99.90;;;;;;4995002;28;20023;-85
2021/08/27 12:17:27;;;;;;;6.30;2.75;;;28.60;99.90;;;;;;4995817;28;20049;-85
2021/08/27 12:19:58;;;;;;;4.80;3.15;;;27.70;99.90;;;;;;4996145;28;20446;-85
2021/08/27 12:22:27;;;;;;;3.97;2.97;;;27.00;99.90;;;;;;4996287;28;20495;-85
2021/08/27 12:24:54;;;;;;;4.85;3.30;;;27.10;99.90;;;;;;4992267;28;20030;-85
2021/08/27 12:27:21;;;;;;;8.45;3.50;;;28.80;99.90;;;;;;4994596;28;20073;-85
2021/08/27 12:30:06;;;;;;;3.95;2.70;;;29.60;99.90;;;;;;4996261;28;20117;-84
2021/08/27 12:32:32;;;;;;;4.85;3.00;;;27.70;99.90;;;;;;4995694;28;20407;-85
2021/08/27 12:34:59;;;;;;;5.05;2.65;;;27.30;99.90;;;;;;4996884;28;20042;-85
2021/08/27 12:37:25;;;;;;;5.43;3.20;;;28.10;99.90;;;;;;4999480;28;20033;-85
2021/08/27 12:39:51;;;;;;;5.82;2.92;;;30.30;99.90;;;;;;4996178;28;20491;-85
2021/08/27 12:42:18;;;;;;;6.15;2.92;;;29.90;99.90;;;;;;4998767;28;20096;-85
2021/08/27 12:44:57;;;;;;;5.88;2.83;;;30.70;99.90;;;;;;5000289;28;20026;-85
2021/08/27 12:47:40;;;;;;;3.40;2.58;;;30.00;99.90;;;;;;4999378;28;20033;-85
2021/08/27 12:50:15;;;;;;;3.22;2.47;;;29.10;99.90;;;;;;4999401;28;20034;-85
2021/08/27 12:52:57;;;;;;;3.92;2.80;;;28.90;99.90;;;;;;4999179;28;20113;-85
2021/08/27 12:55:24;;;;;;;2.88;2.45;;;28.10;99.90;;;;;;5000122;28;20021;-85